Airfield :
LOGIN :

Register | Disclaimer

   EN    FR    IT 

 










Legend :    VFR   Marginal VFR   IFR   Intensive IFR   Very Intensive IFR
Visi :
Ceiling :
>= 8 km
>= 3000ft
5 to 8 km
1000 to 3000 ft
1500m to 5 km
500 to 1000 ft
800 to 1500m
200 to 500 ft
< 800m
< 200 ft
Symbols :   Thunderstorms  Fog  Heavy snow  Heavy precipitations  Wind > 20 kt
SIGMETs :     Misc.  Thunderstorms  Icing  Turbulence  Mountain Waves  Volcanic Ashes







- Airport Elevation : 479 ft
- IATA code : DOL
- Download approach charts


LFRG - Deauville

CURRENT METAR :
  • 210700Z AUTO 25007KT 9999 BKN009 BKN013 16/14 Q1022 TEMPO 3000 BR BECMG SCT020

EXPIRED METARs :
  • 210630Z AUTO 25006KT 9999 BKN010 BKN015 16/14 Q1022 TEMPO 3000 BR BECMG SCT020
  • 210600Z AUTO 21006KT 9999 OVC009 14/13 Q1022 TEMPO 3000 BR BKN010
  • 210530Z AUTO 22005KT 9999 BKN008 14/13 Q1021 TEMPO 3000 BR BKN010
  • 210500Z AUTO 23006KT 9999 SCT011 13/12 Q1021
  • 210430Z AUTO 23007KT 9999 OVC011 13/12 Q1021

TAF TAF LFRG
Valid from the 21 at 06:00 until the 21 at 15:00 UTC


210500Z 2106/2115 23005KT 9999 SCT020
PROB30
TEMPO 2106/2108 3000 BR BKN010
ATIS : +33 2 31 65 65 36
No reported NOTAMs for that airfield.



MET'MAP, your aeronautical weather chart ! - Copyright ORBIFLY December 2007 - Disclaimer

ORBIFLY MET'MAP TEAM :

Programming & Development : Alexandra Zaïnal
Concept & Development : Baudouin d'Aumeries
Co-Development & Prog : Marc-Olivier Méhu
Technical & hardware support : Manuel Goepfert

Contact : metmap@orbifly.com




SOURCES & CREDITS :

   NOAA